Time;durP1;ratioP1;P1;durP2;ratioP2;P2;SDS_P1;SDS_P2;PMS_P1;PMS_P2;Temp;Humidity;BMP_temperature;BMP_pressure;BME280_temperature;BME280_humidity;BME280_pressure;Samples;Min_cycle;Max_cycle;Signal;HPM_P1;HPM_P2
2023/12/15 00:08:07;;;;;;;21.50;13.50;;;;;;;0.93;100.00;99054.12;437438;1247;99301;-39
2023/12/15 00:18:14;;;;;;;26.80;13.80;;;;;;;0.90;100.00;99065.14;437402;1250;108833;-39
2023/12/15 00:28:20;;;;;;;21.30;14.00;;;;;;;0.87;100.00;99083.20;437577;1250;98604;-39
2023/12/15 00:48:33;;;;;;;23.60;13.30;;;;;;;0.67;100.00;99128.98;436927;1260;587098;-41
2023/12/15 00:58:40;;;;;;;12.90;8.80;;;;;;;0.49;100.00;99150.19;437459;1250;99275;-39
2023/12/15 01:08:47;;;;;;;17.40;9.60;;;;;;;0.32;100.00;99163.20;437470;1250;112017;-39
2023/12/15 01:18:54;;;;;;;26.20;13.90;;;;;;;0.23;100.00;99188.65;437383;1251;106473;-38
2023/12/15 01:29:02;;;;;;;24.80;13.50;;;;;;;0.16;100.00;99213.26;437489;1251;99259;-39
2023/12/15 01:39:10;;;;;;;24.80;13.10;;;;;;;0.08;100.00;99234.06;437497;1254;109417;-40
2023/12/15 01:49:15;;;;;;;20.40;13.20;;;;;;;-0.00;100.00;99251.61;437538;1250;99208;-41
2023/12/15 01:59:22;;;;;;;34.80;18.00;;;;;;;-0.17;100.00;99261.52;437516;1252;111892;-39
2023/12/15 02:09:29;;;;;;;24.00;14.50;;;;;;;-0.33;100.00;99270.68;437573;1250;108106;-39
2023/12/15 02:19:37;;;;;;;26.10;14.30;;;;;;;-0.38;100.00;99278.07;437355;1251;99202;-40
2023/12/15 02:29:42;;;;;;;23.60;13.40;;;;;;;-0.37;100.00;99291.46;438276;1248;108189;-42
2023/12/15 02:39:49;;;;;;;21.40;13.00;;;;;;;-0.33;100.00;99305.64;437421;1250;99236;-38
2023/12/15 02:49:56;;;;;;;35.10;17.80;;;;;;;-0.32;100.00;99324.80;437541;1248;111265;-38
2023/12/15 03:00:04;;;;;;;38.80;16.60;;;;;;;-0.38;100.00;99347.18;437510;1248;107274;-39
2023/12/15 03:10:11;;;;;;;22.90;13.00;;;;;;;-0.36;100.00;99359.52;437393;1260;99086;-39
2023/12/15 03:20:19;;;;;;;23.10;13.10;;;;;;;-0.32;100.00;99373.11;437440;1251;108209;-39
2023/12/15 03:30:27;;;;;;;22.00;13.20;;;;;;;-0.26;100.00;99388.71;437439;1248;98810;-39
2023/12/15 03:40:34;;;;;;;38.20;17.00;;;;;;;-0.24;100.00;99402.06;437318;1250;111546;-40
2023/12/15 03:50:41;;;;;;;34.70;17.70;;;;;;;-0.24;100.00;99420.77;437430;1253;107750;-40
2023/12/15 04:00:51;;;;;;;35.70;17.30;;;;;;;-0.29;100.00;99431.03;437491;1248;99202;-39
2023/12/15 04:10:58;;;;;;;24.00;14.80;;;;;;;-0.27;100.00;99446.35;437296;1250;111250;-39
2023/12/15 04:21:06;;;;;;;30.80;15.90;;;;;;;-0.17;100.00;99475.75;437435;1251;107595;-40
2023/12/15 04:31:14;;;;;;;31.40;16.80;;;;;;;-0.11;100.00;99476.55;437281;1251;98813;-39
2023/12/15 04:41:21;;;;;;;39.60;18.00;;;;;;;-0.06;100.00;99471.55;437356;1251;107633;-39
2023/12/15 04:51:29;;;;;;;57.70;26.10;;;;;;;-0.06;100.00;99481.60;437405;1251;97966;-39
2023/12/15 05:01:36;;;;;;;40.70;20.50;;;;;;;-0.16;100.00;99497.95;437422;1250;111551;-39
2023/12/15 05:11:43;;;;;;;32.50;17.50;;;;;;;-0.24;100.00;99529.69;437476;1248;109443;-40
2023/12/15 05:21:49;;;;;;;27.70;15.40;;;;;;;-0.26;100.00;99557.27;437465;1248;99228;-39
2023/12/15 05:31:56;;;;;;;99.30;41.80;;;;;;;-0.21;100.00;99562.57;437367;1251;111980;-39
2023/12/15 05:42:04;;;;;;;52.60;23.00;;;;;;;-0.11;100.00;99564.36;437425;1248;110154;-39
2023/12/15 05:52:11;;;;;;;85.70;31.90;;;;;;;-0.08;100.00;99560.50;437560;1248;98915;-39
2023/12/15 06:02:18;;;;;;;179.90;56.80;;;;;;;-0.09;100.00;99586.45;437497;1250;108527;-38
2023/12/15 06:12:26;;;;;;;65.00;25.30;;;;;;;-0.18;100.00;99606.65;437616;1248;99202;-39
2023/12/15 06:22:33;;;;;;;39.50;20.70;;;;;;;-0.24;100.00;99629.14;437406;1247;111715;-39
2023/12/15 06:32:40;;;;;;;29.10;17.10;;;;;;;-0.22;100.00;99651.71;437591;1248;108090;-39
2023/12/15 06:42:47;;;;;;;29.10;15.50;;;;;;;-0.11;100.00;99663.34;437924;1247;98007;-40
2023/12/15 06:52:54;;;;;;;34.80;18.60;;;;;;;-0.01;100.00;99680.67;437346;1248;111934;-39
2023/12/15 07:03:01;;;;;;;34.30;18.00;;;;;;;0.07;100.00;99697.67;437321;1251;109295;-41
2023/12/15 07:13:08;;;;;;;36.60;18.40;;;;;;;0.11;100.00;99704.73;437435;1247;97901;-39
2023/12/15 07:23:15;;;;;;;31.60;17.60;;;;;;;0.03;100.00;99717.09;437332;1250;111423;-39
2023/12/15 07:33:22;;;;;;;37.30;17.50;;;;;;;-0.01;100.00;99734.94;437227;1247;108403;-40
2023/12/15 07:43:29;;;;;;;24.20;15.10;;;;;;;0.07;100.00;99733.51;437270;1250;97991;-39
2023/12/15 07:53:36;;;;;;;25.10;14.90;;;;;;;0.20;100.00;99748.13;437283;1247;111799;-39
2023/12/15 08:03:44;;;;;;;38.00;18.50;;;;;;;0.41;100.00;99765.23;437284;1247;107439;-40
2023/12/15 08:13:51;;;;;;;33.80;17.20;;;;;;;0.51;100.00;99786.01;437380;1250;97927;-40
2023/12/15 08:23:58;;;;;;;24.10;13.30;;;;;;;0.50;100.00;99800.77;437477;1250;111857;-40
2023/12/15 08:34:06;;;;;;;28.90;14.20;;;;;;;0.54;100.00;99811.70;437253;1247;108216;-39
2023/12/15 08:44:13;;;;;;;20.80;11.40;;;;;;;0.55;100.00;99825.12;437308;1248;99305;-39
2023/12/15 08:54:35;;;;;;;23.20;12.40;;;;;;;0.61;100.00;99848.54;437325;1246;109570;-40
2023/12/15 09:04:42;;;;;;;20.10;12.50;;;;;;;0.59;100.00;99870.40;437273;1250;99187;-40
2023/12/15 09:35:13;;;;;;;30.80;18.30;;;;;;;0.40;100.00;99893.32;437456;1247;98782;-39
2023/12/15 09:45:19;;;;;;;39.60;21.80;;;;;;;0.64;100.00;99902.16;437306;1247;111076;-40
2023/12/15 10:05:33;;;;;;;38.80;21.10;;;;;;;0.81;100.00;99908.73;437344;1248;99190;-38
2023/12/15 10:15:41;;;;;;;85.60;31.20;;;;;;;0.73;100.00;99909.86;437377;1250;107626;-38
2023/12/15 10:25:48;;;;;;;56.20;24.10;;;;;;;0.78;100.00;99906.41;437353;1247;99308;-39
2023/12/15 10:35:55;;;;;;;33.80;20.90;;;;;;;1.03;100.00;99916.88;437340;1246;114130;-39
2023/12/15 10:46:04;;;;;;;25.40;14.60;;;;;;;1.24;100.00;99930.92;437321;1247;107530;-38
2023/12/15 10:56:12;;;;;;;35.00;18.50;;;;;;;1.24;100.00;99932.55;437444;1250;99186;-38
2023/12/15 11:06:26;;;;;;;32.70;20.00;;;;;;;1.14;100.00;99933.24;437459;1247;108037;-38
2023/12/15 11:16:38;;;;;;;21.90;13.60;;;;;;;1.23;100.00;99930.70;437389;1257;99213;-38
2023/12/15 11:26:46;;;;;;;28.20;16.90;;;;;;;1.36;99.97;99932.63;437403;1247;112889;-39
2023/12/15 11:36:54;;;;;;;41.00;19.80;;;;;;;1.41;99.97;99936.89;437257;1248;106592;-40
2023/12/15 11:46:59;;;;;;;33.70;16.80;;;;;;;1.42;99.95;99940.91;437529;1250;99193;-39
2023/12/15 11:57:08;;;;;;;42.60;19.90;;;;;;;1.38;99.93;99953.99;437514;1250;107917;-39
2023/12/15 12:07:13;;;;;;;17.30;10.50;;;;;;;1.42;99.95;99956.74;437304;1250;99236;-40
2023/12/15 12:27:32;;;;;;;16.50;10.10;;;;;;;1.48;99.69;99967.02;437363;1250;106893;-41
2023/12/15 12:37:39;;;;;;;26.00;14.30;;;;;;;1.44;99.64;99973.72;437519;1246;118472;-40
2023/12/15 12:47:49;;;;;;;28.70;17.10;;;;;;;1.30;99.56;99980.95;436894;1250;610994;-38
2023/12/15 13:08:00;;;;;;;53.40;25.60;;;;;;;1.17;99.50;99991.96;437538;1250;111332;-39
2023/12/15 13:18:09;;;;;;;28.40;15.50;;;;;;;1.19;99.27;99991.64;437561;1248;107828;-38
2023/12/15 13:58:35;;;;;;;42.00;17.30;;;;;;;1.14;98.95;100026.27;437522;1250;98709;-39
2023/12/15 14:08:40;;;;;;;26.80;17.10;;;;;;;1.04;98.79;100044.55;437444;1247;111285;-39
2023/12/15 14:18:47;;;;;;;64.20;27.50;;;;;;;1.04;98.60;100046.46;437376;1247;106682;-38
2023/12/15 14:28:56;;;;;;;36.50;18.20;;;;;;;0.90;98.61;100044.77;437480;1250;99220;-40
2023/12/15 14:49:09;;;;;;;66.40;33.40;;;;;;;0.49;98.57;100060.80;437467;1250;109351;-40
2023/12/15 14:59:16;;;;;;;70.00;34.80;;;;;;;0.33;98.30;100074.28;437362;1247;99199;-40
2023/12/15 15:09:23;;;;;;;42.50;23.40;;;;;;;0.30;98.42;100085.09;437500;1247;110991;-40
2023/12/15 15:19:29;;;;;;;43.70;23.50;;;;;;;0.20;98.35;100094.84;437530;1258;108035;-39
2023/12/15 15:29:37;;;;;;;70.80;33.40;;;;;;;0.04;98.40;100097.56;437501;1250;99201;-39
2023/12/15 15:39:44;;;;;;;60.60;29.80;;;;;;;-0.09;98.78;100102.17;437614;1246;112347;-39
2023/12/15 15:49:51;;;;;;;59.00;28.80;;;;;;;-0.20;98.79;100105.95;437403;1250;109239;-38
2023/12/15 15:59:58;;;;;;;58.90;31.80;;;;;;;-0.29;98.53;100103.38;437373;1248;99199;-38
2023/12/15 16:20:12;;;;;;;55.70;30.70;;;;;;;0.01;99.05;100118.40;437457;1246;107752;-38
2023/12/15 16:40:24;;;;;;;90.60;44.50;;;;;;;0.18;99.41;100144.23;437627;1250;111690;-39
2023/12/15 16:50:31;;;;;;;116.40;58.80;;;;;;;0.18;99.43;100158.60;437415;1248;108316;-39
2023/12/15 17:00:37;;;;;;;80.50;41.00;;;;;;;0.15;99.40;100156.94;437507;1250;97995;-38
2023/12/15 17:10:44;;;;;;;79.00;44.10;;;;;;;0.19;99.32;100157.30;437488;1250;112218;-40
2023/12/15 17:30:56;;;;;;;56.70;34.10;;;;;;;0.46;99.61;100154.38;437507;1250;99217;-41
2023/12/15 17:41:04;;;;;;;93.80;47.20;;;;;;;0.53;99.51;100150.35;437418;1250;107336;-38
2023/12/15 17:51:11;;;;;;;123.70;59.70;;;;;;;0.37;99.33;100134.12;437496;1247;98061;-38
2023/12/15 18:01:18;;;;;;;80.70;41.80;;;;;;;0.26;99.57;100144.60;437405;1248;111386;-38
2023/12/15 18:21:31;;;;;;;97.50;47.70;;;;;;;0.44;99.74;100174.70;437432;1250;98814;-40
2023/12/15 18:31:38;;;;;;;74.50;38.80;;;;;;;0.55;99.87;100193.88;437318;1250;111996;-39
2023/12/15 18:41:47;;;;;;;102.50;45.20;;;;;;;0.62;99.86;100224.36;437474;1247;107790;-39
2023/12/15 18:51:54;;;;;;;85.90;40.90;;;;;;;0.61;99.95;100228.62;437581;1250;99346;-39
2023/12/15 19:02:01;;;;;;;84.40;42.50;;;;;;;0.57;99.93;100231.04;437369;1250;111843;-39
2023/12/15 19:12:09;;;;;;;52.70;27.30;;;;;;;0.60;99.85;100239.09;437355;1248;108175;-39
2023/12/15 19:32:21;;;;;;;44.90;26.00;;;;;;;0.76;99.87;100240.89;437295;1251;110551;-40
2023/12/15 19:52:35;;;;;;;59.80;30.30;;;;;;;0.73;100.00;100246.50;437457;1250;99214;-40
2023/12/15 20:02:42;;;;;;;46.30;24.70;;;;;;;0.74;99.95;100250.48;437414;1250;109030;-40
2023/12/15 20:22:53;;;;;;;43.70;24.10;;;;;;;0.82;99.94;100253.95;437376;1247;112494;-39
2023/12/15 20:33:00;;;;;;;53.00;28.00;;;;;;;0.82;99.97;100256.03;437414;1251;108221;-39
2023/12/15 20:53:13;;;;;;;59.50;27.90;;;;;;;0.58;99.98;100243.76;437558;1248;108207;-38
2023/12/15 21:03:21;;;;;;;53.30;31.20;;;;;;;0.55;99.90;100240.55;437486;1252;99237;-39
2023/12/15 21:13:27;;;;;;;47.20;24.00;;;;;;;0.61;99.95;100238.82;437417;1251;111788;-39
2023/12/15 21:33:40;;;;;;;52.10;27.90;;;;;;;0.82;100.00;100246.27;437420;1252;99226;-40
2023/12/15 21:43:47;;;;;;;47.70;23.50;;;;;;;0.80;100.00;100253.75;437621;1250;111076;-39
2023/12/15 21:53:52;;;;;;;37.40;22.10;;;;;;;0.91;100.00;100261.67;437437;1248;108167;-39
2023/12/15 22:03:58;;;;;;;34.80;19.90;;;;;;;1.04;100.00;100279.03;437392;1250;98660;-40
2023/12/15 22:14:05;;;;;;;34.80;18.80;;;;;;;1.12;100.00;100273.50;437447;1248;108363;-40
2023/12/15 22:24:12;;;;;;;40.20;22.50;;;;;;;1.13;100.00;100275.40;437542;1250;99330;-40
2023/12/15 22:34:18;;;;;;;49.10;24.50;;;;;;;1.11;100.00;100261.76;437581;1250;111450;-39
2023/12/15 22:44:26;;;;;;;33.50;19.60;;;;;;;1.14;100.00;100269.08;437282;1260;108621;-40
2023/12/15 22:54:33;;;;;;;36.70;20.40;;;;;;;1.22;100.00;100268.48;437473;1248;99221;-39
2023/12/15 23:14:46;;;;;;;48.60;26.80;;;;;;;1.36;100.00;100279.11;437481;1248;107861;-40
2023/12/15 23:24:59;;;;;;;80.20;35.90;;;;;;;1.34;100.00;100296.79;437607;1247;99202;-40
2023/12/15 23:35:06;;;;;;;53.10;27.00;;;;;;;1.31;100.00;100288.74;437553;1250;111998;-40
2023/12/15 23:45:10;;;;;;;37.90;23.30;;;;;;;1.34;100.00;100296.44;437348;1248;108567;-40
2023/12/15 23:55:16;;;;;;;39.80;22.50;;;;;;;1.41;100.00;100298.14;437514;1260;99322;-40
